Terminal Aerodrome Forecast
Issued by NWS

Home | Current Version | Previous Version | Text Only | Print | Product List | Glossary On
Versions: 1 2 3 4 5 6 7 8 9 10 11 12 13 14 15 16 17 18
000
FTUS43 KABR 171700
TAFATY
TAF
KATY 171726Z 1718/1818 03008KT P6SM SCT200
     FM180100 08005KT P6SM SCT150
     FM180800 09005KT 3SM BR SKC
      TEMPO 1808/1812 2SM BR
     FM181400 15012KT P6SM SCT250=

USA.gov is the U.S. government's official web portal to all federal, state and local government web resources and services.